Time;durP1;ratioP1;P1;durP2;ratioP2;P2;SDS_P1;SDS_P2;PMS_P1;PMS_P2;Temp;Humidity;BMP_temperature;BMP_pressure;BME280_temperature;BME280_humidity;BME280_pressure;Samples;Min_cycle;Max_cycle;Signal;HPM_P1;HPM_P2
2022/06/18 00:02:12;;;;;;;6.47;3.30;;;17.30;80.30;;;;;;5036079;28;20230;-78
2022/06/18 00:04:39;;;;;;;4.30;3.00;;;17.30;80.80;;;;;;5043073;28;20232;-78
2022/06/18 00:07:09;;;;;;;3.50;2.70;;;17.30;80.60;;;;;;5031837;28;20252;-75
2022/06/18 00:09:41;;;;;;;4.22;2.92;;;17.30;80.70;;;;;;5045250;28;20296;-76
2022/06/18 00:14:58;;;;;;;4.57;3.35;;;17.20;81.20;;;;;;5042070;28;20676;-76
2022/06/18 00:17:26;;;;;;;3.47;3.08;;;17.20;81.20;;;;;;5048599;28;20986;-77
2022/06/18 00:19:53;;;;;;;4.95;3.35;;;17.20;81.50;;;;;;5049223;28;20215;-77
2022/06/18 00:22:22;;;;;;;4.00;3.08;;;17.20;81.20;;;;;;5045230;28;20254;-76
2022/06/18 00:24:50;;;;;;;4.15;2.67;;;17.20;81.70;;;;;;5048718;28;20219;-77
2022/06/18 00:27:18;;;;;;;4.20;3.00;;;17.20;81.90;;;;;;5045142;28;20231;-78
2022/06/18 00:29:46;;;;;;;4.80;3.40;;;17.10;81.70;;;;;;5044503;28;20254;-78
2022/06/18 00:32:13;;;;;;;4.85;3.25;;;17.10;81.60;;;;;;5048870;28;20224;-78
2022/06/18 00:34:41;;;;;;;3.80;3.00;;;17.10;81.80;;;;;;5049154;28;20339;-77
2022/06/18 00:37:10;;;;;;;3.35;3.03;;;17.10;82.00;;;;;;5050052;28;20252;-78
2022/06/18 00:39:37;;;;;;;3.90;2.83;;;17.10;82.00;;;;;;5050032;28;20299;-78
2022/06/18 00:42:08;;;;;;;2.90;2.60;;;17.00;81.90;;;;;;5047097;28;20307;-78
2022/06/18 00:44:36;;;;;;;3.60;2.72;;;17.00;82.40;;;;;;5036284;28;20232;-78
2022/06/18 00:47:11;;;;;;;5.50;3.00;;;17.00;82.40;;;;;;5053190;28;20654;-78
2022/06/18 00:49:46;;;;;;;4.75;3.00;;;17.00;82.80;;;;;;5056036;28;20231;-77
2022/06/18 00:52:19;;;;;;;6.72;3.25;;;16.90;82.80;;;;;;5046001;28;20281;-78
2022/06/18 00:54:52;;;;;;;5.68;3.25;;;16.90;82.90;;;;;;5053726;28;20244;-76
2022/06/18 00:57:28;;;;;;;5.60;3.08;;;16.90;83.20;;;;;;5055139;28;20248;-76
2022/06/18 01:00:00;;;;;;;4.95;3.22;;;16.90;83.30;;;;;;5042014;28;20699;-76
2022/06/18 01:02:33;;;;;;;6.05;3.03;;;16.80;83.60;;;;;;5038293;28;20224;-77
2022/06/18 01:05:01;;;;;;;6.15;3.10;;;16.80;83.50;;;;;;5041437;28;20219;-78
2022/06/18 01:07:31;;;;;;;6.00;3.20;;;16.80;83.90;;;;;;5050131;28;20228;-75
2022/06/18 01:10:02;;;;;;;5.70;3.30;;;16.70;84.10;;;;;;5037164;28;20219;-77
2022/06/18 01:12:30;;;;;;;4.60;2.90;;;16.70;84.50;;;;;;5042031;28;20225;-75
2022/06/18 01:15:01;;;;;;;5.20;3.00;;;16.70;84.40;;;;;;5047118;28;20582;-76
2022/06/18 01:17:32;;;;;;;4.75;3.30;;;16.60;84.70;;;;;;5043794;28;20216;-76
2022/06/18 01:20:04;;;;;;;4.38;2.90;;;16.60;84.50;;;;;;5046109;28;20802;-75
2022/06/18 01:22:40;;;;;;;5.00;2.88;;;16.60;84.80;;;;;;5061545;28;20266;-77
2022/06/18 01:25:09;;;;;;;4.57;2.80;;;16.60;85.30;;;;;;5036080;28;20300;-77
2022/06/18 01:27:40;;;;;;;3.92;3.03;;;16.50;85.60;;;;;;5042937;28;20244;-77
2022/06/18 01:30:20;;;;;;;6.30;2.97;;;16.50;85.20;;;;;;5043352;28;20731;-77
2022/06/18 01:32:51;;;;;;;3.83;3.03;;;16.50;85.60;;;;;;5044217;28;20220;-77
2022/06/18 01:35:19;;;;;;;5.30;2.63;;;16.50;85.90;;;;;;5042937;28;20217;-77
2022/06/18 01:37:59;;;;;;;4.40;2.90;;;16.40;86.10;;;;;;5057188;28;20277;-76
2022/06/18 01:40:37;;;;;;;5.93;3.33;;;16.40;86.10;;;;;;5046805;28;20243;-77
2022/06/18 01:43:06;;;;;;;3.60;2.85;;;16.40;86.80;;;;;;5039260;28;20829;-76
2022/06/18 01:45:39;;;;;;;3.90;3.20;;;16.40;86.50;;;;;;5044371;28;20315;-76
2022/06/18 01:48:12;;;;;;;4.97;3.50;;;16.40;86.80;;;;;;5044791;28;20289;-76
2022/06/18 01:50:44;;;;;;;4.90;3.05;;;16.30;86.90;;;;;;5045373;28;20220;-77
2022/06/18 01:53:15;;;;;;;3.90;3.15;;;16.30;87.00;;;;;;5050591;28;20220;-77
2022/06/18 01:55:46;;;;;;;3.15;2.80;;;16.30;87.20;;;;;;5057807;28;20739;-77
2022/06/18 01:58:16;;;;;;;3.67;2.70;;;16.20;87.40;;;;;;5046472;28;20239;-77
2022/06/18 02:00:46;;;;;;;2.85;2.50;;;16.20;87.30;;;;;;5044636;28;20232;-77
2022/06/18 02:03:14;;;;;;;3.88;2.90;;;16.20;87.40;;;;;;5041897;28;20752;-77
2022/06/18 02:05:41;;;;;;;3.97;2.80;;;16.10;87.60;;;;;;5047940;28;20323;-78
2022/06/18 02:08:10;;;;;;;3.45;2.70;;;16.20;87.80;;;;;;5043832;28;20254;-76
2022/06/18 02:10:41;;;;;;;3.60;3.30;;;16.10;88.10;;;;;;5064979;28;20221;-76
2022/06/18 02:13:10;;;;;;;4.55;3.22;;;16.10;88.30;;;;;;5039873;28;20293;-76
2022/06/18 02:15:42;;;;;;;5.20;3.30;;;16.10;88.70;;;;;;5048116;28;20232;-78
2022/06/18 02:18:13;;;;;;;2.90;2.60;;;16.10;89.00;;;;;;5042518;28;20212;-77
2022/06/18 02:20:45;;;;;;;3.13;2.80;;;16.00;89.00;;;;;;5042348;28;20331;-77
2022/06/18 02:23:12;;;;;;;4.57;2.90;;;16.00;89.60;;;;;;5040795;28;20232;-77
2022/06/18 02:25:43;;;;;;;4.32;2.83;;;16.00;89.50;;;;;;5039441;28;20224;-77
2022/06/18 02:28:24;;;;;;;4.35;3.13;;;16.00;89.70;;;;;;5043097;28;20228;-76
2022/06/18 02:30:52;;;;;;;3.13;2.87;;;16.00;90.20;;;;;;5048593;28;20216;-78
2022/06/18 02:33:30;;;;;;;4.53;3.20;;;15.90;90.10;;;;;;5040917;28;20229;-78
2022/06/18 02:35:59;;;;;;;4.03;3.00;;;15.90;90.40;;;;;;5055831;28;20570;-78
2022/06/18 02:38:26;;;;;;;4.10;3.03;;;15.90;90.30;;;;;;5043716;28;20228;-78
2022/06/18 02:40:53;;;;;;;3.42;3.13;;;15.90;90.30;;;;;;5045446;28;20307;-78
2022/06/18 02:43:22;;;;;;;4.30;2.97;;;15.90;90.40;;;;;;5045964;28;20235;-78
2022/06/18 02:45:53;;;;;;;4.83;3.27;;;15.80;90.50;;;;;;5045608;28;20236;-78
2022/06/18 02:48:23;;;;;;;3.47;3.00;;;15.80;90.70;;;;;;5041310;28;20252;-78
2022/06/18 02:50:50;;;;;;;6.72;3.20;;;15.80;90.80;;;;;;5043044;28;20603;-75
2022/06/18 02:53:24;;;;;;;4.03;2.90;;;15.80;90.90;;;;;;5016308;28;20224;-76
2022/06/18 02:55:56;;;;;;;3.20;2.90;;;15.80;90.80;;;;;;5046748;28;20224;-77
2022/06/18 02:58:27;;;;;;;3.93;3.03;;;15.70;91.00;;;;;;5047456;28;20234;-78
2022/06/18 03:00:57;;;;;;;4.85;2.90;;;15.70;91.20;;;;;;5047310;28;20375;-76
2022/06/18 03:03:26;;;;;;;3.57;3.13;;;15.80;91.40;;;;;;5039662;28;20248;-75
2022/06/18 03:05:54;;;;;;;4.00;3.08;;;15.70;91.20;;;;;;5044925;28;20216;-77
2022/06/18 03:08:26;;;;;;;3.70;3.33;;;15.70;91.20;;;;;;5042175;28;20234;-76
2022/06/18 03:13:43;;;;;;;3.17;2.87;;;15.70;91.40;;;;;;5043626;28;20222;-78
2022/06/18 03:16:12;;;;;;;3.57;2.60;;;15.80;91.60;;;;;;5051850;28;20312;-77
2022/06/18 03:18:44;;;;;;;4.13;3.10;;;15.70;91.50;;;;;;5044373;28;20244;-77
2022/06/18 03:21:18;;;;;;;3.38;3.08;;;15.80;91.60;;;;;;5054095;28;20215;-78
2022/06/18 03:23:46;;;;;;;3.55;2.75;;;15.70;91.70;;;;;;5041086;28;20315;-76
2022/06/18 03:26:17;;;;;;;3.27;2.80;;;15.70;91.70;;;;;;5039275;28;20818;-77
2022/06/18 03:28:51;;;;;;;3.90;3.03;;;15.70;92.00;;;;;;5048863;28;20302;-77
2022/06/18 03:31:18;;;;;;;2.90;2.70;;;15.70;91.90;;;;;;5042079;28;20600;-77
2022/06/18 03:33:46;;;;;;;5.13;2.70;;;15.80;91.90;;;;;;5039036;28;20234;-77
2022/06/18 03:36:14;;;;;;;4.40;3.00;;;15.80;92.00;;;;;;5043363;28;20305;-76
2022/06/18 03:38:41;;;;;;;3.83;2.70;;;15.80;92.00;;;;;;5061101;28;20763;-76
2022/06/18 03:41:10;;;;;;;4.45;2.88;;;15.80;92.10;;;;;;5053684;28;20233;-76
2022/06/18 03:43:40;;;;;;;5.13;3.08;;;15.80;92.10;;;;;;5062270;28;20247;-77
2022/06/18 03:46:10;;;;;;;4.30;2.80;;;15.90;92.10;;;;;;5040592;28;20293;-76
2022/06/18 03:48:42;;;;;;;3.33;3.03;;;15.90;92.30;;;;;;5050735;28;20319;-77
2022/06/18 03:51:10;;;;;;;4.57;3.00;;;15.90;92.30;;;;;;5047332;28;20212;-75
2022/06/18 03:53:37;;;;;;;4.93;2.83;;;16.00;92.30;;;;;;5039916;28;20241;-77
2022/06/18 03:56:04;;;;;;;3.57;2.70;;;16.00;92.30;;;;;;5046267;28;20216;-76
2022/06/18 03:58:37;;;;;;;3.15;2.85;;;16.00;92.30;;;;;;5045219;28;20230;-77
2022/06/18 04:01:04;;;;;;;5.13;3.00;;;16.10;92.30;;;;;;5039741;28;20418;-76
2022/06/18 04:03:34;;;;;;;3.22;2.70;;;16.10;92.30;;;;;;5028850;28;20227;-77
2022/06/18 04:06:01;;;;;;;3.30;3.00;;;16.20;92.40;;;;;;5044463;28;20295;-75
2022/06/18 04:08:28;;;;;;;6.57;2.90;;;16.20;92.40;;;;;;5044028;28;20232;-75
2022/06/18 04:11:01;;;;;;;4.03;2.87;;;16.20;92.40;;;;;;5036299;28;20220;-76
2022/06/18 04:13:28;;;;;;;4.72;3.10;;;16.20;92.40;;;;;;5059174;28;21181;-77
2022/06/18 04:16:16;;;;;;;5.73;2.97;;;16.30;92.50;;;;;;5048535;28;20330;-75
2022/06/18 04:18:46;;;;;;;3.08;2.53;;;16.30;92.50;;;;;;5039406;28;20268;-77
2022/06/18 04:21:16;;;;;;;3.42;2.60;;;16.30;92.70;;;;;;5038392;28;20275;-76
2022/06/18 04:23:44;;;;;;;3.90;2.88;;;16.40;92.70;;;;;;5060283;28;20220;-76
2022/06/18 04:26:11;;;;;;;3.30;2.63;;;16.40;92.80;;;;;;5051708;28;20228;-77
2022/06/18 04:28:41;;;;;;;4.25;2.60;;;16.50;92.80;;;;;;5049430;28;20312;-77
2022/06/18 04:31:14;;;;;;;3.53;2.60;;;16.50;92.70;;;;;;5047336;28;20312;-75
2022/06/18 04:33:45;;;;;;;5.55;2.80;;;16.50;92.70;;;;;;5047472;28;20335;-77
2022/06/18 04:36:33;;;;;;;6.65;3.10;;;16.60;92.90;;;;;;5046039;28;20310;-77
2022/06/18 04:39:03;;;;;;;4.47;2.90;;;16.60;92.90;;;;;;5041241;28;20706;-77
2022/06/18 04:41:55;;;;;;;3.10;2.80;;;16.70;92.80;;;;;;5061111;28;20219;-77
2022/06/18 04:44:25;;;;;;;4.75;2.88;;;16.80;92.80;;;;;;5056951;28;20749;-76
2022/06/18 04:46:57;;;;;;;5.22;2.60;;;16.80;92.80;;;;;;5058768;28;20211;-78
2022/06/18 04:49:27;;;;;;;4.75;2.60;;;16.90;92.90;;;;;;5039346;28;20293;-78
2022/06/18 04:51:54;;;;;;;4.53;2.87;;;16.90;93.10;;;;;;5043011;28;20312;-76
2022/06/18 04:54:32;;;;;;;4.07;3.07;;;17.00;93.00;;;;;;5045072;28;20223;-77
2022/06/18 04:56:59;;;;;;;4.57;2.88;;;17.10;93.00;;;;;;5046090;28;20259;-77
2022/06/18 04:59:26;;;;;;;3.45;2.70;;;17.10;93.10;;;;;;5053017;28;20326;-77
2022/06/18 05:02:00;;;;;;;4.40;2.83;;;17.20;93.10;;;;;;5048942;28;20276;-76
2022/06/18 05:04:54;;;;;;;3.83;2.80;;;17.30;93.30;;;;;;5047575;28;20302;-77
2022/06/18 05:07:55;;;;;;;2.90;2.60;;;17.40;93.30;;;;;;5045898;28;20227;-77
2022/06/18 05:10:46;;;;;;;3.35;2.95;;;17.50;93.10;;;;;;5047529;28;20229;-77
2022/06/18 05:13:19;;;;;;;3.22;2.92;;;17.60;93.10;;;;;;5036824;28;20273;-77
2022/06/18 05:15:51;;;;;;;4.28;2.97;;;17.60;93.20;;;;;;5062550;28;20292;-77
2022/06/18 05:18:20;;;;;;;4.65;2.95;;;17.70;93.10;;;;;;5050614;28;20649;-77
2022/06/18 05:20:53;;;;;;;3.47;2.55;;;17.80;93.10;;;;;;5045583;28;20307;-78
2022/06/18 05:23:25;;;;;;;3.33;2.83;;;17.90;93.30;;;;;;5042741;28;20220;-76
2022/06/18 05:25:55;;;;;;;3.25;2.58;;;17.90;93.30;;;;;;5069475;28;20314;-77
2022/06/18 05:28:22;;;;;;;3.05;2.63;;;18.00;93.40;;;;;;5056830;28;20228;-77
2022/06/18 05:30:49;;;;;;;6.82;2.70;;;18.10;93.40;;;;;;5044626;28;20288;-76
2022/06/18 05:33:15;;;;;;;3.10;2.80;;;18.20;93.50;;;;;;5063196;28;20285;-76
2022/06/18 05:35:46;;;;;;;4.10;2.70;;;18.20;93.50;;;;;;5053406;28;20311;-77
2022/06/18 05:38:18;;;;;;;3.30;2.60;;;18.30;93.60;;;;;;5045367;28;20220;-77
2022/06/18 05:40:45;;;;;;;6.70;2.65;;;18.40;93.60;;;;;;5049888;28;20224;-77
2022/06/18 05:43:12;;;;;;;4.78;3.08;;;18.50;93.50;;;;;;5050956;28;20227;-77
2022/06/18 05:45:39;;;;;;;3.58;2.63;;;18.50;93.50;;;;;;5051672;28;20616;-77
2022/06/18 05:48:07;;;;;;;5.03;2.70;;;18.60;93.40;;;;;;5046097;28;20251;-77
2022/06/18 05:50:35;;;;;;;3.58;2.55;;;18.70;93.50;;;;;;5055686;28;20679;-78
2022/06/18 05:53:05;;;;;;;3.40;2.78;;;18.70;93.40;;;;;;5049944;28;20224;-78
2022/06/18 05:55:42;;;;;;;4.00;2.88;;;18.80;93.30;;;;;;5048909;28;20828;-77
2022/06/18 05:58:48;;;;;;;4.03;2.80;;;18.90;93.30;;;;;;4992099;28;21156;-78
2022/06/18 06:01:23;;;;;;;5.43;2.95;;;19.00;93.20;;;;;;4976671;28;20412;-77
2022/06/18 06:03:51;;;;;;;4.05;2.85;;;19.10;93.20;;;;;;5018606;28;20216;-78
2022/06/18 06:06:18;;;;;;;4.43;3.05;;;19.30;93.20;;;;;;5052991;28;20239;-77
2022/06/18 06:08:47;;;;;;;3.45;2.83;;;19.40;93.20;;;;;;5053055;28;20228;-77
2022/06/18 06:11:30;;;;;;;5.22;2.88;;;19.40;93.00;;;;;;5051554;28;20304;-78
2022/06/18 06:14:01;;;;;;;4.15;2.97;;;19.60;93.10;;;;;;5055010;28;20219;-76
2022/06/18 06:16:29;;;;;;;5.78;3.25;;;19.70;93.10;;;;;;5053232;28;20230;-77
2022/06/18 06:19:05;;;;;;;3.72;2.70;;;19.80;93.20;;;;;;5051975;28;20328;-78
2022/06/18 06:21:32;;;;;;;7.25;3.20;;;19.90;93.40;;;;;;5051603;28;20264;-77
2022/06/18 06:23:58;;;;;;;4.35;3.20;;;20.00;93.20;;;;;;5038076;28;20292;-77
2022/06/18 06:26:30;;;;;;;3.70;3.30;;;20.20;93.00;;;;;;5063438;28;20231;-78
2022/06/18 06:28:57;;;;;;;4.72;3.60;;;20.40;92.30;;;;;;5048635;28;20229;-77
2022/06/18 06:31:23;;;;;;;7.65;3.50;;;20.60;91.90;;;;;;5053095;28;21376;-77
2022/06/18 06:33:50;;;;;;;7.32;4.40;;;20.80;91.70;;;;;;5050161;28;20289;-77
2022/06/18 06:36:17;;;;;;;5.40;3.83;;;21.00;91.20;;;;;;5046884;28;20220;-78
2022/06/18 06:38:44;;;;;;;6.50;4.18;;;21.20;90.80;;;;;;5056158;28;20228;-76
2022/06/18 06:41:14;;;;;;;4.35;3.53;;;21.30;90.50;;;;;;5057177;28;20333;-78
2022/06/18 06:43:42;;;;;;;6.53;4.30;;;21.50;90.30;;;;;;5055808;28;20816;-77
2022/06/18 06:46:12;;;;;;;5.70;4.35;;;21.60;89.40;;;;;;5050081;28;20291;-78
2022/06/18 06:48:39;;;;;;;5.47;4.38;;;21.70;88.70;;;;;;5052889;28;20227;-78
2022/06/18 06:51:12;;;;;;;4.45;3.40;;;21.80;88.70;;;;;;5050759;28;20251;-78
2022/06/18 06:53:39;;;;;;;4.20;3.80;;;21.90;88.30;;;;;;5054123;28;20235;-77
2022/06/18 06:58:55;;;;;;;7.22;4.00;;;22.20;88.30;;;;;;5050698;28;20224;-79
2022/06/18 07:01:22;;;;;;;6.63;3.78;;;22.40;88.30;;;;;;5052675;28;20224;-80
2022/06/18 07:03:48;;;;;;;4.97;3.67;;;22.80;88.70;;;;;;5055028;28;20311;-79
2022/06/18 07:06:16;;;;;;;4.80;3.78;;;23.30;88.30;;;;;;5039862;28;20266;-80
2022/06/18 07:08:43;;;;;;;4.97;4.03;;;23.90;86.40;;;;;;5049962;28;20677;-79
2022/06/18 07:11:10;;;;;;;4.72;3.63;;;24.60;85.10;;;;;;5056206;28;20251;-79
2022/06/18 07:13:37;;;;;;;4.43;3.78;;;25.30;83.50;;;;;;5052273;28;20224;-76
2022/06/18 07:16:07;;;;;;;7.68;4.00;;;26.00;82.20;;;;;;5050853;28;20732;-76
2022/06/18 07:18:36;;;;;;;5.60;3.20;;;26.60;79.40;;;;;;5046343;28;20248;-77
2022/06/18 07:21:07;;;;;;;6.32;3.60;;;27.20;78.60;;;;;;5049442;28;20223;-75
2022/06/18 07:23:35;;;;;;;6.75;3.33;;;27.80;76.90;;;;;;5050499;28;20258;-77
2022/06/18 07:26:02;;;;;;;7.05;3.67;;;28.30;75.10;;;;;;5036049;28;20227;-76
2022/06/18 07:28:29;;;;;;;5.75;3.55;;;28.80;73.90;;;;;;5040542;28;20330;-76
2022/06/18 07:30:55;;;;;;;5.78;3.58;;;29.20;72.50;;;;;;5054841;28;20223;-76
2022/06/18 07:33:27;;;;;;;8.05;3.53;;;29.60;71.10;;;;;;5049612;28;20228;-77
2022/06/18 07:35:54;;;;;;;6.35;4.35;;;29.90;69.00;;;;;;5053447;28;20234;-76
2022/06/18 07:38:21;;;;;;;7.47;3.90;;;30.20;68.40;;;;;;5044817;28;20252;-77
2022/06/18 07:40:50;;;;;;;5.88;3.67;;;30.40;67.70;;;;;;5037941;28;20232;-77
2022/06/18 07:43:20;;;;;;;3.72;3.20;;;30.70;66.60;;;;;;5043161;28;20227;-77
2022/06/18 07:45:47;;;;;;;5.80;3.50;;;30.90;65.30;;;;;;5049287;28;20255;-79
2022/06/18 07:48:14;;;;;;;7.32;3.60;;;31.10;65.10;;;;;;5048948;28;20224;-79
2022/06/18 07:50:46;;;;;;;4.57;3.20;;;31.30;64.60;;;;;;5042329;28;20279;-78
2022/06/18 07:53:16;;;;;;;8.07;3.70;;;31.60;63.70;;;;;;5054673;28;20269;-78
2022/06/18 07:55:43;;;;;;;5.50;3.45;;;31.80;63.00;;;;;;5062113;28;20228;-78
2022/06/18 07:58:09;;;;;;;4.55;3.97;;;32.10;62.70;;;;;;5045268;28;20227;-78
2022/06/18 08:00:39;;;;;;;5.53;3.85;;;32.30;61.50;;;;;;5047729;28;20228;-79
2022/06/18 08:03:06;;;;;;;4.78;3.38;;;32.40;60.50;;;;;;5051788;28;20228;-78
2022/06/18 08:05:33;;;;;;;7.20;3.80;;;32.60;60.00;;;;;;5048477;28;20224;-79
2022/06/18 08:08:01;;;;;;;6.72;3.90;;;32.70;60.10;;;;;;5045023;28;20228;-79
2022/06/18 08:10:28;;;;;;;5.53;3.90;;;32.90;59.60;;;;;;5042489;28;20228;-78
2022/06/18 08:12:55;;;;;;;4.95;3.90;;;33.10;58.60;;;;;;5048161;28;20218;-79
2022/06/18 08:15:24;;;;;;;7.55;4.03;;;33.30;58.60;;;;;;5037850;28;20693;-79
2022/06/18 08:17:51;;;;;;;5.28;3.33;;;33.40;57.50;;;;;;5048172;28;20234;-78
2022/06/18 08:20:18;;;;;;;7.35;4.10;;;33.50;58.20;;;;;;5052148;28;20239;-79
2022/06/18 08:22:47;;;;;;;8.05;3.42;;;33.70;57.60;;;;;;5046715;28;20238;-80
2022/06/18 08:25:18;;;;;;;4.72;3.60;;;33.80;57.00;;;;;;5051782;28;20866;-78
2022/06/18 08:27:47;;;;;;;5.95;3.70;;;34.00;56.60;;;;;;5037067;28;20236;-78
2022/06/18 08:30:14;;;;;;;8.40;3.72;;;34.10;56.70;;;;;;5043325;28;20598;-79
2022/06/18 08:32:40;;;;;;;5.93;4.07;;;34.30;56.50;;;;;;5041040;28;20327;-79
2022/06/18 08:35:08;;;;;;;7.18;3.70;;;34.50;55.80;;;;;;5041088;28;20555;-79
2022/06/18 08:37:35;;;;;;;6.63;4.07;;;34.60;55.50;;;;;;5037354;28;20315;-79
2022/06/18 08:40:34;;;;;;;4.72;3.72;;;34.70;55.70;;;;;;5040633;28;20224;-79
2022/06/18 08:43:03;;;;;;;4.78;3.95;;;34.80;54.60;;;;;;5044382;28;20228;-81
2022/06/18 08:45:37;;;;;;;7.15;3.50;;;34.90;54.00;;;;;;5055203;28;20582;-80
2022/06/18 08:48:20;;;;;;;7.18;4.00;;;35.10;54.40;;;;;;5043535;28;20229;-79
2022/06/18 08:51:00;;;;;;;6.40;3.88;;;35.00;53.40;;;;;;5043960;28;21321;-79
2022/06/18 08:54:01;;;;;;;6.85;4.18;;;35.10;53.30;;;;;;5044114;28;20228;-80
2022/06/18 08:56:36;;;;;;;5.13;3.67;;;35.10;53.90;;;;;;5052594;28;20328;-78
2022/06/18 08:59:14;;;;;;;6.57;4.30;;;35.20;53.10;;;;;;5046723;28;20241;-79
2022/06/18 09:01:46;;;;;;;6.60;4.07;;;35.20;53.00;;;;;;5048106;28;20220;-79
2022/06/18 09:04:23;;;;;;;7.22;3.72;;;35.30;52.70;;;;;;5045856;28;20232;-80
2022/06/18 09:07:17;;;;;;;6.78;3.63;;;35.30;52.70;;;;;;5038843;28;20701;-79
2022/06/18 09:09:49;;;;;;;6.60;4.13;;;35.20;52.60;;;;;;5036171;28;20718;-79
2022/06/18 09:12:20;;;;;;;4.25;3.72;;;35.20;52.80;;;;;;5059824;28;20602;-80
2022/06/18 09:14:52;;;;;;;5.28;3.90;;;35.20;53.70;;;;;;5043029;28;20229;-80
2022/06/18 09:17:24;;;;;;;6.40;3.85;;;35.10;52.90;;;;;;5039675;28;20602;-79
2022/06/18 09:19:57;;;;;;;8.98;4.32;;;35.10;52.60;;;;;;5043102;28;20303;-80
2022/06/18 09:22:27;;;;;;;5.78;3.67;;;35.10;52.60;;;;;;5040385;28;20235;-79
2022/06/18 09:25:00;;;;;;;5.63;3.53;;;35.10;53.00;;;;;;5051116;28;20246;-80
2022/06/18 09:27:35;;;;;;;7.53;4.30;;;35.20;52.70;;;;;;5050926;28;20227;-79
2022/06/18 09:30:08;;;;;;;5.82;4.10;;;35.40;52.60;;;;;;5046298;28;20223;-80
2022/06/18 09:32:39;;;;;;;6.47;4.90;;;35.50;52.40;;;;;;5045727;28;20234;-78
2022/06/18 09:35:11;;;;;;;7.05;4.07;;;35.60;52.10;;;;;;5044104;28;20868;-80
2022/06/18 09:37:44;;;;;;;6.13;4.35;;;35.70;52.00;;;;;;5057961;28;20230;-80
2022/06/18 09:40:16;;;;;;;6.90;4.38;;;35.70;51.80;;;;;;5053446;28;20677;-79
2022/06/18 09:42:48;;;;;;;5.05;4.00;;;35.60;51.70;;;;;;5049697;28;20230;-79
2022/06/18 09:45:22;;;;;;;7.40;4.13;;;35.40;51.90;;;;;;5050890;28;20223;-79
2022/06/18 09:47:50;;;;;;;6.68;4.25;;;35.30;52.00;;;;;;5054245;28;20225;-79
2022/06/18 09:50:22;;;;;;;8.00;4.63;;;35.20;52.40;;;;;;5042575;28;20229;-79
2022/06/18 09:52:53;;;;;;;6.63;4.38;;;35.10;52.40;;;;;;5051127;28;20835;-79
2022/06/18 09:55:24;;;;;;;4.43;3.60;;;35.00;52.80;;;;;;5058367;28;20271;-79
2022/06/18 09:57:53;;;;;;;6.07;3.63;;;34.90;53.40;;;;;;5046378;28;20234;-80
2022/06/18 10:00:25;;;;;;;9.57;3.80;;;34.80;52.90;;;;;;5044361;28;20227;-80
2022/06/18 10:02:58;;;;;;;6.20;4.20;;;34.80;52.60;;;;;;5059765;28;20316;-79
2022/06/18 10:08:16;;;;;;;7.57;4.10;;;34.70;52.40;;;;;;5043075;28;20984;-80
2022/06/18 10:10:50;;;;;;;7.72;3.75;;;34.50;52.50;;;;;;5042049;28;20286;-80
2022/06/18 10:13:24;;;;;;;7.55;3.10;;;34.40;52.80;;;;;;5041345;28;20668;-80
2022/06/18 10:16:03;;;;;;;7.38;3.78;;;34.10;52.20;;;;;;5045203;28;20784;-80
2022/06/18 10:18:48;;;;;;;7.43;3.75;;;33.90;52.40;;;;;;5047755;28;20305;-79
2022/06/18 10:21:23;;;;;;;8.07;4.15;;;33.80;52.40;;;;;;5043210;28;20227;-79
2022/06/18 10:23:58;;;;;;;8.95;3.83;;;33.70;52.60;;;;;;5045723;28;20227;-80
2022/06/18 10:26:36;;;;;;;8.00;3.30;;;33.70;53.00;;;;;;5043476;28;20228;-79
2022/06/18 10:29:11;;;;;;;4.28;3.13;;;33.80;52.30;;;;;;5041460;28;20243;-79
2022/06/18 10:31:55;;;;;;;5.80;3.70;;;34.00;52.00;;;;;;5048189;28;20230;-80
2022/06/18 10:34:45;;;;;;;4.72;3.00;;;34.10;51.60;;;;;;5052866;28;20239;-79
2022/06/18 10:37:22;;;;;;;6.05;3.83;;;34.00;50.80;;;;;;5040336;28;20239;-80
2022/06/18 10:40:00;;;;;;;5.03;3.00;;;33.90;51.10;;;;;;5060505;28;20233;-80
2022/06/18 10:42:42;;;;;;;5.55;3.10;;;33.90;51.10;;;;;;5055059;28;20223;-80
2022/06/18 10:45:16;;;;;;;4.03;2.67;;;33.80;51.50;;;;;;5062781;28;20227;-80
2022/06/18 10:47:50;;;;;;;6.15;3.00;;;33.80;51.80;;;;;;5052085;28;20232;-80
2022/06/18 10:50:20;;;;;;;4.97;2.92;;;33.80;51.40;;;;;;5049572;28;20293;-80
2022/06/18 10:52:57;;;;;;;4.55;2.60;;;33.80;51.80;;;;;;5040624;28;20980;-79
2022/06/18 10:55:25;;;;;;;4.55;2.47;;;33.80;52.00;;;;;;5059991;28;20230;-79
2022/06/18 10:57:52;;;;;;;5.85;2.60;;;33.90;52.00;;;;;;5048469;28;20322;-79
2022/06/18 11:00:23;;;;;;;6.00;2.55;;;33.80;52.00;;;;;;5057139;28;20238;-79
2022/06/18 11:02:53;;;;;;;5.93;2.50;;;33.90;52.30;;;;;;5051839;28;20220;-80
2022/06/18 11:05:24;;;;;;;4.93;2.40;;;34.00;52.00;;;;;;5051794;28;20258;-79
2022/06/18 11:07:53;;;;;;;7.38;2.03;;;34.00;52.70;;;;;;5054048;28;20555;-80
2022/06/18 11:10:33;;;;;;;8.43;3.50;;;34.00;52.90;;;;;;5050174;28;20276;-80
2022/06/18 11:13:01;;;;;;;3.92;2.42;;;34.10;52.50;;;;;;5057928;28;20230;-82
2022/06/18 11:15:31;;;;;;;3.53;2.15;;;34.20;52.30;;;;;;5047233;28;20247;-80
2022/06/18 11:18:00;;;;;;;5.05;2.40;;;34.30;52.30;;;;;;5052301;28;20225;-80
2022/06/18 11:20:29;;;;;;;5.28;2.78;;;34.30;52.40;;;;;;5046533;28;20228;-80
2022/06/18 11:22:58;;;;;;;3.70;2.38;;;34.30;52.30;;;;;;5038257;28;20606;-80
2022/06/18 11:25:33;;;;;;;4.95;2.35;;;34.30;52.40;;;;;;5062071;28;20229;-80
2022/06/18 11:28:02;;;;;;;3.17;2.08;;;34.30;52.10;;;;;;5044415;28;20212;-80
2022/06/18 11:30:34;;;;;;;4.70;2.20;;;34.20;51.50;;;;;;5046330;28;20259;-80
2022/06/18 11:33:20;;;;;;;3.30;1.92;;;34.10;52.30;;;;;;5039996;28;20259;-80
2022/06/18 11:35:50;;;;;;;3.25;1.80;;;33.80;51.70;;;;;;5041933;28;20229;-80
2022/06/18 11:38:26;;;;;;;6.30;2.13;;;33.70;52.40;;;;;;5059266;28;20268;-80
2022/06/18 11:40:55;;;;;;;4.20;1.73;;;33.60;52.50;;;;;;5047720;28;20231;-80
2022/06/18 11:43:37;;;;;;;2.53;1.63;;;33.60;52.80;;;;;;5043751;28;20228;-80
2022/06/18 11:46:10;;;;;;;4.80;1.98;;;33.60;52.50;;;;;;5044324;28;20219;-79
2022/06/18 11:48:43;;;;;;;2.90;1.40;;;33.70;52.20;;;;;;5041778;28;20652;-80
2022/06/18 11:51:18;;;;;;;2.25;1.40;;;33.70;52.10;;;;;;5044233;28;20235;-80
2022/06/18 11:53:55;;;;;;;2.15;1.33;;;33.60;51.20;;;;;;5042274;28;20227;-80
2022/06/18 11:56:28;;;;;;;3.40;1.30;;;33.50;51.90;;;;;;5046422;28;20307;-80
2022/06/18 11:59:02;;;;;;;2.17;1.30;;;33.40;52.10;;;;;;5042337;28;20716;-80
2022/06/18 12:01:33;;;;;;;2.83;1.20;;;33.10;52.00;;;;;;5045595;28;20467;-80
2022/06/18 12:04:10;;;;;;;2.42;1.40;;;33.00;52.20;;;;;;5057013;28;20231;-80
2022/06/18 12:06:41;;;;;;;2.15;1.08;;;32.90;52.80;;;;;;5046717;28;20282;-80
2022/06/18 12:09:10;;;;;;;3.03;1.10;;;32.90;52.90;;;;;;5043648;28;20847;-80
2022/06/18 12:11:51;;;;;;;1.92;1.00;;;33.10;52.90;;;;;;5041897;28;20228;-80
2022/06/18 12:14:25;;;;;;;2.03;1.10;;;33.20;52.40;;;;;;5045753;28;20217;-80
2022/06/18 12:16:58;;;;;;;1.35;0.90;;;33.30;52.60;;;;;;5046474;28;20232;-80
2022/06/18 12:19:31;;;;;;;1.98;1.00;;;33.50;52.10;;;;;;5041853;28;20753;-80
2022/06/18 12:22:05;;;;;;;0.85;0.70;;;33.50;52.10;;;;;;5043956;28;20223;-80
2022/06/18 12:24:40;;;;;;;1.05;0.70;;;33.60;52.20;;;;;;5042891;28;20223;-80
2022/06/18 12:27:12;;;;;;;1.73;0.70;;;33.60;51.60;;;;;;5037247;28;20316;-80
2022/06/18 12:29:54;;;;;;;2.58;0.63;;;33.50;51.00;;;;;;5043612;28;20248;-80
2022/06/18 12:32:30;;;;;;;1.45;0.60;;;33.30;50.90;;;;;;5046514;28;20700;-80
2022/06/18 12:35:10;;;;;;;1.35;0.52;;;33.00;50.90;;;;;;5041121;28;20311;-80
2022/06/18 12:37:47;;;;;;;1.88;0.40;;;32.80;51.10;;;;;;5044333;28;20230;-80
2022/06/18 12:40:22;;;;;;;1.02;0.70;;;32.60;51.30;;;;;;5044695;28;20826;-80
2022/06/18 12:42:53;;;;;;;1.67;0.73;;;32.50;51.60;;;;;;5037023;28;20657;-80
2022/06/18 12:45:30;;;;;;;1.40;0.68;;;32.30;52.20;;;;;;5044951;28;20224;-80
2022/06/18 12:48:05;;;;;;;1.50;0.80;;;32.20;52.20;;;;;;5040723;28;20243;-80
2022/06/18 12:50:47;;;;;;;1.00;0.55;;;32.20;52.60;;;;;;5038589;28;20234;-80
2022/06/18 12:53:34;;;;;;;1.00;0.75;;;32.20;52.60;;;;;;5037304;28;20253;-79
2022/06/18 12:56:12;;;;;;;2.05;0.60;;;32.10;52.80;;;;;;5043408;28;20323;-80
2022/06/18 12:58:46;;;;;;;0.80;0.60;;;32.20;52.50;;;;;;5035351;28;20750;-80
2022/06/18 13:01:20;;;;;;;0.93;0.60;;;32.10;52.50;;;;;;5041634;28;20781;-80
2022/06/18 13:04:11;;;;;;;1.33;0.65;;;32.00;52.40;;;;;;5039199;28;20254;-80
2022/06/18 13:06:54;;;;;;;1.00;0.70;;;32.00;52.60;;;;;;5042119;28;20256;-80
2022/06/18 13:09:34;;;;;;;1.05;0.88;;;32.10;53.00;;;;;;5048768;28;20230;-80
2022/06/18 13:12:17;;;;;;;1.45;0.70;;;32.10;52.70;;;;;;5040311;28;20283;-80
2022/06/18 13:14:57;;;;;;;2.42;0.80;;;32.00;52.40;;;;;;5041780;28;20642;-80
2022/06/18 13:17:27;;;;;;;1.77;0.52;;;32.00;52.30;;;;;;5043173;28;20231;-80
2022/06/18 13:20:00;;;;;;;1.90;0.70;;;32.00;52.30;;;;;;5044261;28;20639;-80
2022/06/18 13:22:28;;;;;;;2.38;0.70;;;31.90;52.30;;;;;;5041118;28;20230;-80
2022/06/18 13:30:40;;;;;;;2.08;0.90;;;31.60;53.10;;;;;;5037998;28;20224;-80